createdAt,value
2016-06-20T00:00:47.087Z,97.42
2016-06-20T00:01:47.684Z,97.33
2016-06-20T00:02:47.063Z,98.19
2016-06-20T00:03:47.050Z,97.9
2016-06-20T00:04:47.022Z,97.8
2016-06-20T00:05:47.010Z,97.52
2016-06-20T00:06:46.997Z,97.28
2016-06-20T00:07:47.595Z,97.13
2016-06-20T00:08:47.583Z,97.13
2016-06-20T00:09:46.946Z,96.37
2016-06-20T00:10:47.543Z,95.98
2016-06-20T00:11:47.531Z,95.98
2016-06-20T00:12:47.518Z,95.36
2016-06-20T00:13:46.896Z,95.75
2016-06-20T00:14:47.494Z,95.65
2016-06-20T00:15:46.858Z,95.17
2016-06-20T00:16:47.454Z,95.56
2016-06-20T00:17:47.426Z,95.7
2016-06-20T00:18:47.430Z,95.36
2016-06-20T00:19:47.403Z,95.51
2016-06-20T00:20:46.781Z,95.98
2016-06-20T00:21:46.768Z,95.89
2016-06-20T00:22:46.757Z,97.04
2016-06-20T00:23:47.353Z,96.75
2016-06-20T00:24:47.342Z,96.37
2016-06-20T00:25:46.704Z,96.47
2016-06-20T00:26:47.301Z,96.08
2016-06-20T00:27:47.306Z,96.27
2016-06-20T00:28:46.668Z,96.08
2016-06-20T00:29:47.281Z,96.66
2016-06-20T00:30:47.252Z,96.42
2016-06-20T00:31:47.241Z,97.13
2016-06-20T00:32:47.229Z,97.28
2016-06-20T00:33:46.591Z,97.13
2016-06-20T00:34:47.188Z,97.33
2016-06-20T00:35:47.177Z,97.08
2016-06-20T00:36:47.165Z,97.13
2016-06-20T00:37:47.152Z,97.08
2016-06-20T00:38:47.140Z,97.18
2016-06-20T00:39:46.503Z,96.99
2016-06-20T00:40:47.100Z,97.04
2016-06-20T00:41:47.087Z,96.84
2016-06-20T00:42:46.466Z,96.08
2016-06-20T00:43:46.470Z,96.56
2016-06-20T00:44:47.036Z,96.56
2016-06-20T00:45:46.446Z,95.89
2016-06-20T00:46:47.027Z,95.51
2016-06-20T00:47:47.000Z,95.51
2016-06-20T00:48:46.362Z,95.79
2016-06-20T00:49:47.007Z,96.27
2016-06-20T00:50:46.337Z,96.8
2016-06-20T00:51:46.982Z,97.08
2016-06-20T00:52:46.906Z,97.08
2016-06-20T00:53:46.895Z,97.47
2016-06-20T00:54:46.273Z,97.56
2016-06-20T00:55:46.261Z,97.95
2016-06-20T00:56:46.249Z,97.66
2016-06-20T00:57:46.221Z,97.47
2016-06-20T00:58:46.209Z,97.95
2016-06-20T00:59:46.806Z,97.18
2016-06-20T01:00:46.185Z,96.99
2016-06-20T01:01:46.829Z,96.56
2016-06-20T01:02:46.770Z,96.08
2016-06-20T01:03:46.133Z,96.18
2016-06-20T01:04:46.730Z,96.66
2016-06-20T01:05:46.718Z,96.22
2016-06-20T01:06:46.096Z,97.28
2016-06-20T01:07:46.084Z,97.47
2016-06-20T01:08:46.681Z,98.33
2016-06-20T01:09:46.700Z,98.57
2016-06-20T01:10:46.641Z,98.57
2016-06-20T01:11:46.630Z,98.75
2016-06-20T01:12:46.008Z,99.33
2016-06-20T01:13:46.604Z,99.71
2016-06-20T01:14:46.577Z,99.95
2016-06-20T01:15:45.956Z,99.99
2016-06-20T01:16:45.944Z,99.99
2016-06-20T01:17:46.540Z,99.95
2016-06-20T01:18:46.512Z,99.9
2016-06-20T01:19:46.500Z,98.95
2016-06-20T01:20:45.895Z,98.66
2016-06-20T01:21:45.851Z,97.95
2016-06-20T01:22:45.854Z,97.18
2016-06-20T01:23:46.436Z,97.08
2016-06-20T01:24:46.425Z,96.51
2016-06-20T01:25:46.412Z,96.89
2016-06-20T01:26:46.399Z,96.51
2016-06-20T01:27:46.419Z,96.51
2016-06-20T01:28:45.751Z,96.99
2016-06-20T01:29:45.739Z,96.03
2016-06-20T01:30:45.757Z,96.7
2016-06-20T01:31:45.714Z,96.03
2016-06-20T01:32:46.312Z,96.13
2016-06-20T01:33:46.315Z,96.22
2016-06-20T01:34:46.271Z,96.99
2016-06-20T01:35:45.634Z,96.8
2016-06-20T01:36:46.247Z,96.99
2016-06-20T01:37:45.626Z,96.89
2016-06-20T01:38:46.223Z,96.89
2016-06-20T01:39:46.211Z,96.61
